Time;durP1;ratioP1;P1;durP2;ratioP2;P2;SDS_P1;SDS_P2;PMS_P1;PMS_P2;Temp;Humidity;BMP_temperature;BMP_pressure;BME280_temperature;BME280_humidity;BME280_pressure;Samples;Min_cycle;Max_cycle;Signal;HPM_P1;HPM_P2
2022/01/23 00:02:25;;;;;;;36.05;24.75;;;5.90;99.90;;;;;;5010078;28;20053;-75
2022/01/23 00:04:54;;;;;;;36.60;24.58;;;5.80;99.90;;;;;;5027905;28;20693;-75
2022/01/23 00:07:22;;;;;;;;;;;5.80;99.90;;;;;;5028316;28;20056;-77
2022/01/23 00:09:50;;;;;;;36.47;24.58;;;5.80;99.90;;;;;;5026281;28;19920;-76
2022/01/23 00:12:23;;;;;;;36.75;24.77;;;5.80;99.90;;;;;;5032459;28;20471;-76
2022/01/23 00:17:39;;;;;;;40.33;25.67;;;5.80;99.90;;;;;;5047482;28;20053;-76
2022/01/23 00:20:12;;;;;;;34.58;23.48;;;5.90;99.90;;;;;;5048184;28;20045;-76
2022/01/23 00:22:44;;;;;;;37.35;25.00;;;5.80;99.90;;;;;;5047169;28;20048;-76
2022/01/23 00:30:47;;;;;;;36.42;24.52;;;5.90;99.90;;;;;;5063448;28;20293;-76
2022/01/23 00:33:17;;;;;;;36.70;24.25;;;5.80;99.90;;;;;;5029754;28;20063;-76
2022/01/23 00:35:46;;;;;;;32.20;23.70;;;5.80;99.90;;;;;;5047553;28;20041;-74
2022/01/23 00:38:15;;;;;;;36.28;23.52;;;5.80;99.90;;;;;;5047968;28;20045;-74
2022/01/23 00:40:45;;;;;;;33.08;23.00;;;5.80;99.90;;;;;;5046666;28;20045;-75
2022/01/23 00:43:26;;;;;;;32.15;22.30;;;5.80;99.90;;;;;;5048428;28;20060;-76
2022/01/23 00:48:41;;;;;;;34.75;22.42;;;5.80;99.90;;;;;;5048029;28;20056;-75
2022/01/23 00:51:08;;;;;;;29.73;19.75;;;5.80;99.90;;;;;;5046561;28;20044;-76
2022/01/23 00:53:36;;;;;;;32.60;21.40;;;5.80;99.90;;;;;;5059433;28;20060;-76
2022/01/23 00:56:06;;;;;;;30.45;20.83;;;5.80;99.90;;;;;;5046276;28;20056;-76
2022/01/23 00:58:33;;;;;;;35.45;21.70;;;5.80;99.90;;;;;;5046589;28;20059;-75
2022/01/23 01:01:01;;;;;;;26.77;18.50;;;5.80;99.90;;;;;;5061420;28;20056;-75
2022/01/23 01:03:29;;;;;;;23.92;18.33;;;5.80;99.90;;;;;;5043574;28;20041;-75
2022/01/23 01:05:57;;;;;;;25.83;18.33;;;5.80;99.90;;;;;;5028092;28;20049;-76
2022/01/23 01:08:25;;;;;;;25.48;18.88;;;5.80;99.90;;;;;;5059681;28;20045;-75
2022/01/23 01:13:32;;;;;;;24.73;17.13;;;5.80;99.90;;;;;;5060706;28;20048;-76
2022/01/23 01:16:24;;;;;;;27.45;16.85;;;5.80;99.90;;;;;;5043994;28;20048;-76
2022/01/23 01:35:33;;;;;;;22.77;16.40;;;5.80;99.90;;;;;;5043166;28;20049;-75
2022/01/23 01:38:02;;;;;;;24.50;17.83;;;5.80;99.90;;;;;;5026967;28;20056;-75
2022/01/23 01:40:30;;;;;;;25.25;17.33;;;5.80;99.90;;;;;;5027187;28;20048;-75
2022/01/23 01:43:00;;;;;;;24.38;16.77;;;5.80;99.90;;;;;;5044513;28;20052;-74
2022/01/23 01:45:31;;;;;;;26.38;17.75;;;5.90;99.90;;;;;;5045215;28;20057;-75
2022/01/23 01:48:05;;;;;;;21.23;15.55;;;5.80;99.90;;;;;;5043685;28;20056;-74
2022/01/23 01:50:34;;;;;;;25.13;16.60;;;5.80;99.90;;;;;;5043299;28;20049;-75
2022/01/23 01:53:06;;;;;;;30.20;18.33;;;5.80;99.90;;;;;;5044549;28;20045;-75
2022/01/23 01:55:40;;;;;;;26.77;18.13;;;5.80;99.90;;;;;;5044931;28;20060;-74
2022/01/23 01:58:33;;;;;;;27.70;18.23;;;5.80;99.90;;;;;;5045167;28;20053;-74
2022/01/23 02:09:40;;;;;;;27.25;18.75;;;5.80;99.90;;;;;;5043112;28;20052;-76
2022/01/23 02:12:58;;;;;;;26.52;17.60;;;5.80;99.90;;;;;;5044740;28;20041;-76
2022/01/23 02:15:45;;;;;;;26.23;17.67;;;5.70;99.90;;;;;;5045179;28;20055;-76
2022/01/23 02:52:02;;;;;;;32.83;21.63;;;5.70;99.90;;;;;;5048459;28;20045;-74
2022/01/23 02:54:53;;;;;;;24.42;17.40;;;5.70;99.90;;;;;;5032033;28;20061;-75
2022/01/23 02:57:37;;;;;;;32.90;22.13;;;5.70;99.90;;;;;;5037570;28;20064;-74
2022/01/23 03:00:12;;;;;;;33.28;22.40;;;5.70;99.90;;;;;;5034150;28;20053;-74
2022/01/23 03:03:06;;;;;;;31.63;20.80;;;5.70;99.90;;;;;;5041915;28;20045;-76
2022/01/23 03:05:43;;;;;;;32.67;22.55;;;5.60;99.90;;;;;;5042423;28;20038;-74
2022/01/23 03:08:30;;;;;;;;;;;5.70;99.90;;;;;;5027536;28;20473;-76
2022/01/23 03:11:11;;;;;;;29.20;21.63;;;5.70;99.90;;;;;;5043504;28;20032;-75
2022/01/23 03:24:44;;;;;;;33.17;22.65;;;5.70;99.90;;;;;;5047724;28;20056;-74
2022/01/23 03:27:37;;;;;;;33.47;22.92;;;5.60;99.90;;;;;;5046905;28;20057;-74
2022/01/23 03:30:16;;;;;;;34.75;23.15;;;5.60;99.90;;;;;;5060463;28;20342;-74
2022/01/23 03:32:47;;;;;;;34.30;22.98;;;5.60;99.90;;;;;;5011182;28;20064;-76
2022/01/23 03:35:17;;;;;;;31.55;22.70;;;5.60;99.90;;;;;;5026889;28;20064;-74
2022/01/23 03:37:48;;;;;;;35.30;23.52;;;5.60;99.90;;;;;;5030075;28;20097;-74
2022/01/23 03:40:17;;;;;;;36.17;23.80;;;5.60;99.90;;;;;;5028735;28;20053;-74
2022/01/23 03:42:48;;;;;;;32.13;22.95;;;5.70;99.90;;;;;;5026271;28;20053;-74
2022/01/23 03:50:46;;;;;;;34.20;23.10;;;5.60;99.90;;;;;;5048456;28;20049;-75
2022/01/23 03:53:25;;;;;;;34.10;23.70;;;5.60;99.90;;;;;;5046607;28;20504;-74
2022/01/23 03:55:57;;;;;;;33.38;23.55;;;5.60;99.90;;;;;;5049181;28;20053;-74
2022/01/23 03:58:26;;;;;;;31.98;21.95;;;5.60;99.90;;;;;;5046753;28;20053;-74
2022/01/23 04:00:55;;;;;;;32.22;22.98;;;5.60;99.90;;;;;;5047291;28;20053;-75
2022/01/23 04:03:23;;;;;;;30.23;21.10;;;5.50;99.90;;;;;;5047003;28;20049;-75
2022/01/23 04:05:52;;;;;;;31.90;21.20;;;5.60;99.90;;;;;;5046876;28;20540;-74
2022/01/23 04:08:21;;;;;;;33.90;23.00;;;5.60;99.90;;;;;;5030455;28;20068;-74
2022/01/23 04:10:49;;;;;;;32.22;22.05;;;5.60;99.90;;;;;;5062826;28;20045;-74
2022/01/23 04:13:27;;;;;;;37.80;25.48;;;5.60;99.90;;;;;;5029963;28;20053;-74
2022/01/23 04:16:13;;;;;;;34.67;23.77;;;5.60;99.90;;;;;;5047310;28;20057;-74
2022/01/23 04:32:47;;;;;;;33.83;23.67;;;5.60;99.90;;;;;;5062894;28;20504;-74
2022/01/23 04:46:25;;;;;;;28.42;20.33;;;5.60;99.90;;;;;;5048076;28;20048;-74
2022/01/23 04:59:31;;;;;;;31.55;22.30;;;5.60;99.90;;;;;;5045055;28;20044;-73
2022/01/23 05:00:17;;;;;;;32.45;22.23;;;5.60;99.90;;;;;;5023230;28;20595;-74
2022/01/23 05:05:59;;;;;;;32.20;22.02;;;5.50;99.90;;;;;;5041545;28;19928;-74
2022/01/23 05:08:43;;;;;;;32.25;22.73;;;5.60;99.90;;;;;;5030274;28;20044;-74
2022/01/23 05:11:24;;;;;;;31.98;22.95;;;5.60;99.90;;;;;;5045400;28;20048;-73
2022/01/23 05:14:04;;;;;;;39.65;25.00;;;5.60;99.90;;;;;;5047070;28;20052;-74
2022/01/23 05:16:32;;;;;;;37.15;25.15;;;5.50;99.90;;;;;;5029762;28;20531;-74
2022/01/23 05:19:02;;;;;;;40.60;26.90;;;5.50;99.90;;;;;;5045208;28;20072;-74
2022/01/23 05:24:21;;;;;;;36.95;25.35;;;5.50;99.90;;;;;;5046795;28;20485;-74
2022/01/23 05:26:49;;;;;;;37.60;25.60;;;5.50;99.90;;;;;;5027601;28;20045;-73
2022/01/23 05:29:16;;;;;;;38.53;25.92;;;5.50;99.90;;;;;;5044285;28;20777;-74
2022/01/23 05:31:44;;;;;;;37.30;25.85;;;5.50;99.90;;;;;;5045889;28;20487;-74
2022/01/23 05:34:12;;;;;;;35.25;24.25;;;5.40;99.90;;;;;;5045862;28;20590;-74
2022/01/23 05:36:40;;;;;;;38.28;24.95;;;5.50;99.90;;;;;;5060886;28;20060;-76
2022/01/23 05:39:09;;;;;;;33.90;23.63;;;5.50;99.90;;;;;;5061184;28;20041;-76
2022/01/23 05:41:37;;;;;;;38.55;25.50;;;5.50;99.90;;;;;;5042986;28;20055;-76
2022/01/23 05:44:04;;;;;;;36.50;24.63;;;5.50;99.90;;;;;;5044174;28;20048;-76
2022/01/23 05:46:32;;;;;;;37.45;24.80;;;5.60;99.90;;;;;;5044141;28;20511;-75
2022/01/23 05:49:08;;;;;;;39.30;25.17;;;5.60;99.90;;;;;;5011270;28;20136;-76
2022/01/23 05:52:15;;;;;;;35.63;23.15;;;5.60;99.90;;;;;;5022280;28;20093;-75
2022/01/23 05:54:59;;;;;;;37.35;24.00;;;5.50;99.90;;;;;;5021719;28;20057;-75
2022/01/23 05:57:59;;;;;;;35.35;23.98;;;5.50;99.90;;;;;;5021227;28;20052;-76
2022/01/23 06:00:37;;;;;;;38.42;24.73;;;5.60;99.90;;;;;;5043572;28;20749;-75
2022/01/23 06:03:09;;;;;;;35.75;23.25;;;5.60;99.90;;;;;;5043127;28;20041;-73
2022/01/23 06:05:51;;;;;;;37.38;24.50;;;5.70;99.90;;;;;;5012558;28;20735;-74
2022/01/23 06:08:25;;;;;;;40.70;24.85;;;5.50;99.90;;;;;;5060729;28;20583;-74
2022/01/23 06:10:56;;;;;;;38.63;25.13;;;5.60;99.90;;;;;;5042922;28;20037;-74
2022/01/23 06:13:36;;;;;;;38.40;25.17;;;5.70;99.90;;;;;;5044883;28;20041;-74
2022/01/23 06:16:06;;;;;;;37.00;25.08;;;5.60;99.90;;;;;;5046589;28;20092;-74
2022/01/23 06:18:38;;;;;;;37.38;26.02;;;5.60;99.90;;;;;;5050134;28;20037;-74
2022/01/23 06:21:25;;;;;;;39.63;25.23;;;5.60;99.90;;;;;;5052020;28;20049;-74
2022/01/23 06:24:24;;;;;;;41.20;25.45;;;5.50;99.90;;;;;;5048888;28;20053;-74
2022/01/23 06:27:11;;;;;;;43.20;27.13;;;5.50;99.90;;;;;;5036562;28;20040;-74
2022/01/23 06:29:43;;;;;;;39.70;26.75;;;5.50;99.90;;;;;;5048470;28;20041;-75
2022/01/23 06:32:12;;;;;;;41.83;26.45;;;5.60;99.90;;;;;;5048808;28;20498;-74
2022/01/23 06:34:41;;;;;;;40.00;26.50;;;5.50;99.90;;;;;;5049596;28;20047;-74
2022/01/23 06:37:09;;;;;;;;;;;5.50;99.90;;;;;;5049764;28;20405;-74
2022/01/23 06:39:37;;;;;;;38.50;25.98;;;5.50;99.90;;;;;;5066516;28;20396;-74
2022/01/23 06:42:05;;;;;;;40.45;26.42;;;5.50;99.90;;;;;;5049821;28;20051;-75
2022/01/23 06:44:33;;;;;;;38.58;26.60;;;5.50;99.90;;;;;;5051352;28;20044;-75
2022/01/23 06:47:02;;;;;;;38.15;25.55;;;5.50;99.90;;;;;;5033753;28;20060;-75
2022/01/23 06:49:30;;;;;;;38.75;26.42;;;5.50;99.90;;;;;;5049415;28;20052;-75
2022/01/23 06:51:58;;;;;;;38.78;26.42;;;5.50;99.90;;;;;;5048109;28;20049;-73
2022/01/23 06:54:27;;;;;;;40.30;26.70;;;5.50;99.90;;;;;;5010678;28;20045;-74
2022/01/23 06:56:56;;;;;;;35.70;23.80;;;5.50;99.90;;;;;;5027791;28;20456;-75
2022/01/23 06:59:25;;;;;;;39.47;27.17;;;5.50;99.90;;;;;;5027191;28;20049;-73
2022/01/23 07:02:04;;;;;;;40.40;26.77;;;5.60;99.90;;;;;;5016100;28;20513;-75
2022/01/23 07:05:01;;;;;;;42.60;27.38;;;5.60;99.90;;;;;;5027859;28;20579;-74
2022/01/23 07:07:51;;;;;;;42.08;26.40;;;5.40;99.90;;;;;;5044664;28;20493;-74
2022/01/23 07:10:33;;;;;;;42.78;28.25;;;5.60;99.90;;;;;;5046454;28;20053;-74
2022/01/23 07:13:36;;;;;;;40.50;26.63;;;5.50;99.90;;;;;;4985455;28;20065;-76
2022/01/23 07:16:10;;;;;;;40.65;26.50;;;5.50;99.90;;;;;;5006003;28;20046;-75
2022/01/23 07:18:52;;;;;;;39.15;26.55;;;5.50;99.90;;;;;;5027753;28;20056;-75
2022/01/23 07:21:21;;;;;;;38.80;26.05;;;5.50;99.90;;;;;;5040172;28;20048;-75
2022/01/23 07:23:51;;;;;;;38.42;26.33;;;5.50;99.90;;;;;;5027822;28;20421;-75
2022/01/23 07:26:26;;;;;;;42.15;27.23;;;5.50;99.90;;;;;;5014709;28;20819;-75
2022/01/23 07:29:01;;;;;;;42.55;27.05;;;5.50;99.90;;;;;;5028344;28;20033;-75
2022/01/23 07:34:06;;;;;;;39.03;26.15;;;5.50;99.90;;;;;;5027588;28;20053;-75
2022/01/23 07:36:37;;;;;;;41.10;27.38;;;5.50;99.90;;;;;;5028071;28;20485;-75
2022/01/23 07:39:35;;;;;;;42.50;27.08;;;5.60;99.90;;;;;;5012503;28;20072;-75
2022/01/23 07:42:08;;;;;;;40.45;27.00;;;5.60;99.90;;;;;;4996024;28;20254;-75
2022/01/23 07:45:08;;;;;;;42.10;26.50;;;5.50;99.90;;;;;;5032541;28;20668;-75
2022/01/23 07:47:36;;;;;;;41.22;27.50;;;5.60;99.90;;;;;;5049273;28;20052;-76
2022/01/23 07:50:23;;;;;;;43.25;28.50;;;5.50;99.90;;;;;;5046862;28;20049;-74
2022/01/23 07:53:03;;;;;;;42.95;27.88;;;5.50;99.90;;;;;;5048522;28;20049;-74
2022/01/23 07:55:50;;;;;;;41.80;27.73;;;5.50;99.90;;;;;;5041223;28;20045;-75
2022/01/23 07:58:50;;;;;;;43.13;28.27;;;5.50;99.90;;;;;;5048245;28;20508;-74
2022/01/23 08:01:44;;;;;;;42.78;28.15;;;5.50;99.90;;;;;;5028265;28;20057;-75
2022/01/23 08:04:32;;;;;;;43.97;28.77;;;5.50;99.90;;;;;;5046718;28;20052;-75
2022/01/23 08:07:11;;;;;;;47.50;28.92;;;5.50;99.90;;;;;;5062969;28;20036;-75
2022/01/23 08:09:47;;;;;;;;;;;5.50;99.90;;;;;;5047641;28;20048;-74
2022/01/23 08:12:17;;;;;;;44.33;28.38;;;5.50;99.90;;;;;;5048753;28;19921;-74
2022/01/23 08:14:45;;;;;;;42.53;27.20;;;5.50;99.90;;;;;;5054799;28;20048;-76
2022/01/23 08:17:13;;;;;;;43.85;29.05;;;5.50;99.90;;;;;;5045388;28;20507;-75
2022/01/23 08:19:41;;;;;;;43.45;29.17;;;5.50;99.90;;;;;;5045278;28;20041;-74
2022/01/23 08:22:08;;;;;;;44.65;29.05;;;5.50;99.90;;;;;;5029251;28;20053;-75
2022/01/23 08:24:36;;;;;;;46.50;30.52;;;5.50;99.90;;;;;;5027225;28;20060;-75
2022/01/23 08:27:04;;;;;;;44.10;29.02;;;5.50;99.90;;;;;;5026621;28;20053;-75
2022/01/23 08:29:32;;;;;;;44.30;29.45;;;5.50;99.90;;;;;;5027221;28;20045;-74
2022/01/23 08:32:00;;;;;;;45.05;29.75;;;5.60;99.90;;;;;;5028767;28;20049;-75
2022/01/23 08:34:27;;;;;;;45.40;29.80;;;5.50;99.90;;;;;;5045292;28;20453;-75
2022/01/23 08:36:55;;;;;;;44.80;28.80;;;5.60;99.90;;;;;;5045006;28;20354;-75
2022/01/23 08:39:25;;;;;;;46.25;30.08;;;5.50;99.90;;;;;;5045755;28;20032;-75
2022/01/23 08:41:53;;;;;;;47.20;30.38;;;5.70;99.90;;;;;;5046583;28;20535;-74
2022/01/23 08:44:24;;;;;;;47.78;29.95;;;5.60;99.90;;;;;;5019155;28;20056;-75
2022/01/23 08:46:52;;;;;;;44.13;28.05;;;5.50;99.90;;;;;;5024829;28;20053;-75
2022/01/23 08:49:22;;;;;;;44.03;29.75;;;5.70;99.90;;;;;;5044333;28;20059;-74
2022/01/23 08:51:52;;;;;;;47.97;29.23;;;5.60;99.90;;;;;;5044104;28;20041;-74
2022/01/23 08:54:20;;;;;;;45.22;29.77;;;5.60;99.90;;;;;;5041764;28;20045;-74
2022/01/23 08:56:47;;;;;;;44.03;28.98;;;5.60;99.90;;;;;;5044637;28;20048;-74
2022/01/23 08:59:15;;;;;;;42.70;29.90;;;5.70;99.90;;;;;;5022246;28;20064;-74
2022/01/23 09:01:46;;;;;;;43.42;28.98;;;5.70;99.90;;;;;;5045517;28;20048;-74
2022/01/23 09:04:16;;;;;;;42.35;29.23;;;5.70;99.90;;;;;;5044715;28;20068;-74
2022/01/23 09:06:45;;;;;;;43.67;28.15;;;5.70;99.90;;;;;;5047265;28;20056;-75
2022/01/23 09:09:20;;;;;;;45.17;29.60;;;5.70;99.90;;;;;;5044938;28;20064;-74
2022/01/23 09:11:59;;;;;;;41.67;28.58;;;5.80;99.90;;;;;;5054948;28;20536;-74
2022/01/23 09:14:27;;;;;;;41.83;28.33;;;5.80;99.90;;;;;;5041808;28;20045;-75
2022/01/23 09:16:55;;;;;;;40.75;27.42;;;5.80;99.90;;;;;;5045727;28;20204;-74
2022/01/23 09:19:25;;;;;;;42.05;28.55;;;5.80;99.90;;;;;;5045317;28;20045;-74
2022/01/23 09:21:54;;;;;;;40.60;28.25;;;5.80;99.90;;;;;;5044155;28;20040;-75
2022/01/23 09:24:24;;;;;;;43.45;28.75;;;5.80;99.90;;;;;;5044327;28;20511;-75
2022/01/23 09:27:01;;;;;;;56.15;33.88;;;5.80;99.90;;;;;;5047346;28;20060;-75
2022/01/23 09:29:35;;;;;;;48.75;30.50;;;5.90;99.90;;;;;;5051221;28;20041;-76
2022/01/23 09:32:09;;;;;;;48.03;30.23;;;5.90;99.90;;;;;;5042746;28;20378;-76
2022/01/23 09:34:37;;;;;;;40.78;27.48;;;5.90;99.90;;;;;;5048703;28;20052;-76
2022/01/23 09:37:07;;;;;;;42.65;28.00;;;5.90;99.90;;;;;;5045531;28;20055;-75
2022/01/23 09:39:37;;;;;;;37.75;24.92;;;6.00;99.90;;;;;;5045985;28;20073;-75
2022/01/23 09:42:23;;;;;;;38.13;26.00;;;6.00;99.90;;;;;;5024550;28;20049;-75
2022/01/23 09:44:57;;;;;;;39.97;26.02;;;6.00;99.90;;;;;;5040094;28;20059;-78
2022/01/23 09:47:25;;;;;;;41.90;28.45;;;6.00;99.90;;;;;;5045418;28;20052;-75
2022/01/23 09:49:54;;;;;;;;;;;6.00;99.90;;;;;;5046470;28;20076;-75
2022/01/23 09:52:29;;;;;;;42.25;26.95;;;6.10;99.90;;;;;;5045274;28;20399;-76
2022/01/23 09:55:01;;;;;;;41.55;27.67;;;6.10;99.90;;;;;;5037174;28;20037;-76
2022/01/23 09:57:31;;;;;;;38.63;27.25;;;6.10;99.90;;;;;;5059547;28;20065;-76
2022/01/23 10:00:00;;;;;;;42.20;27.80;;;6.20;99.90;;;;;;5045657;28;20044;-75
2022/01/23 10:02:28;;;;;;;41.17;26.98;;;6.20;99.90;;;;;;5045977;28;20045;-75
2022/01/23 10:05:03;;;;;;;44.88;27.67;;;6.10;99.90;;;;;;5044627;28;20045;-74
2022/01/23 10:07:35;;;;;;;41.58;28.20;;;6.20;99.90;;;;;;5043637;28;20048;-75
2022/01/23 10:10:11;;;;;;;38.78;26.90;;;6.20;99.90;;;;;;5043137;28;20059;-75
2022/01/23 10:12:47;;;;;;;33.35;21.33;;;6.20;99.90;;;;;;5043925;28;20048;-74
2022/01/23 10:15:15;;;;;;;29.13;21.33;;;6.30;99.90;;;;;;5043046;28;20045;-75
2022/01/23 10:17:43;;;;;;;;;;;6.30;99.90;;;;;;5045603;28;20075;-76
2022/01/23 10:20:13;;;;;;;20.70;15.68;;;6.30;99.90;;;;;;5044848;28;20602;-75
2022/01/23 10:22:45;;;;;;;24.15;17.83;;;6.30;99.90;;;;;;5043267;28;20052;-74
2022/01/23 10:25:17;;;;;;;23.48;17.70;;;6.50;99.90;;;;;;5045613;28;20076;-75
2022/01/23 10:27:59;;;;;;;24.95;18.85;;;6.40;99.90;;;;;;5044273;28;20051;-75
2022/01/23 10:30:31;;;;;;;25.23;18.67;;;6.50;99.90;;;;;;5045962;28;20056;-75
2022/01/23 10:33:15;;;;;;;27.48;20.27;;;6.50;99.90;;;;;;5044370;28;20537;-74
2022/01/23 10:36:12;;;;;;;27.15;19.95;;;6.50;99.90;;;;;;5045601;28;20052;-75
2022/01/23 10:38:57;;;;;;;29.75;21.70;;;6.50;99.90;;;;;;5045537;28;20045;-75
2022/01/23 10:50:07;;;;;;;23.88;18.02;;;6.50;99.90;;;;;;5044873;28;20041;-73
2022/01/23 10:52:40;;;;;;;26.00;19.30;;;6.60;99.90;;;;;;5028069;28;20045;-75
2022/01/23 10:55:13;;;;;;;22.77;17.45;;;6.60;99.90;;;;;;5039387;28;20045;-74
2022/01/23 10:57:44;;;;;;;29.20;19.63;;;6.60;99.90;;;;;;5024475;28;20607;-74
2022/01/23 11:00:22;;;;;;;24.70;18.35;;;6.60;99.90;;;;;;5043951;28;20071;-74
2022/01/23 11:02:49;;;;;;;28.35;19.55;;;6.60;99.90;;;;;;5045477;28;20045;-74
2022/01/23 11:05:19;;;;;;;27.50;18.08;;;6.60;99.90;;;;;;5045389;28;20049;-73
2022/01/23 11:07:49;;;;;;;27.92;17.50;;;6.60;99.90;;;;;;5047362;28;20048;-74
2022/01/23 11:10:20;;;;;;;27.02;19.52;;;6.60;99.90;;;;;;5045892;28;20080;-73
2022/01/23 11:18:15;;;;;;;25.75;17.48;;;6.70;99.90;;;;;;5047104;28;20412;-74
2022/01/23 11:20:43;;;;;;;28.48;20.35;;;6.70;99.90;;;;;;5046959;28;20044;-74
2022/01/23 11:23:24;;;;;;;28.50;18.38;;;6.70;99.90;;;;;;5046448;28;20053;-75
2022/01/23 11:25:51;;;;;;;24.38;18.45;;;6.70;99.90;;;;;;5050669;28;20045;-73
2022/01/23 11:28:37;;;;;;;28.35;18.38;;;6.70;99.90;;;;;;5054594;28;20045;-74
2022/01/23 11:31:08;;;;;;;21.75;15.57;;;6.70;99.90;;;;;;5050479;28;20452;-73
2022/01/23 11:33:37;;;;;;;25.30;18.02;;;6.70;99.90;;;;;;5047434;28;20770;-74
2022/01/23 11:36:05;;;;;;;;;;;6.70;99.90;;;;;;5046987;28;20036;-74
2022/01/23 11:38:33;;;;;;;19.52;14.20;;;6.70;99.90;;;;;;5049550;28;19931;-73
2022/01/23 11:55:34;;;;;;;21.33;15.10;;;6.80;99.90;;;;;;5047294;28;20052;-74
2022/01/23 11:58:03;;;;;;;24.58;15.88;;;6.80;99.90;;;;;;5048305;28;20049;-74
2022/01/23 12:00:37;;;;;;;23.85;16.23;;;6.80;99.90;;;;;;5047457;28;20056;-73
2022/01/23 12:03:18;;;;;;;24.15;15.65;;;6.80;99.90;;;;;;5029117;28;20723;-74
2022/01/23 12:05:47;;;;;;;20.83;13.75;;;6.80;99.90;;;;;;5029053;28;20053;-72
2022/01/23 12:08:16;;;;;;;20.33;14.00;;;6.80;99.90;;;;;;5030330;28;20049;-72
2022/01/23 12:17:08;;;;;;;23.50;16.15;;;6.90;99.90;;;;;;5048093;28;20041;-74
2022/01/23 12:19:52;;;;;;;24.73;16.65;;;6.90;99.90;;;;;;5050199;28;20826;-74
2022/01/23 12:22:40;;;;;;;26.60;17.05;;;6.90;99.90;;;;;;5031587;28;20048;-74
2022/01/23 12:25:14;;;;;;;29.40;17.38;;;7.00;99.90;;;;;;5031016;28;20061;-74
2022/01/23 12:27:43;;;;;;;20.25;14.40;;;7.00;99.90;;;;;;5047383;28;20045;-74
2022/01/23 12:30:23;;;;;;;24.60;15.65;;;7.00;99.90;;;;;;5046532;28;20049;-72
2022/01/23 12:33:11;;;;;;;21.52;15.30;;;7.10;99.90;;;;;;5047124;28;20556;-73
2022/01/23 12:35:41;;;;;;;21.25;14.60;;;7.00;99.90;;;;;;5045593;28;20048;-73
2022/01/23 12:38:11;;;;;;;22.27;14.13;;;7.00;99.90;;;;;;5062625;28;20089;-73
2022/01/23 12:40:46;;;;;;;25.55;14.93;;;7.00;99.90;;;;;;5047188;28;20049;-73
2022/01/23 12:43:17;;;;;;;22.80;15.57;;;7.00;99.90;;;;;;5045995;28;20053;-72
2022/01/23 12:45:52;;;;;;;28.38;17.52;;;7.00;99.90;;;;;;5046904;28;20489;-73
2022/01/23 12:48:29;;;;;;;22.13;15.75;;;7.00;99.90;;;;;;5046874;28;20437;-73
2022/01/23 12:51:13;;;;;;;20.48;15.05;;;7.00;99.90;;;;;;5037999;28;20048;-72
2022/01/23 12:53:47;;;;;;;21.27;15.18;;;7.00;99.90;;;;;;5039453;28;20056;-73
2022/01/23 12:56:14;;;;;;;22.55;16.55;;;6.90;99.90;;;;;;5035829;28;20037;-73
2022/01/23 12:58:50;;;;;;;23.40;17.15;;;6.90;99.90;;;;;;5038196;28;20394;-79
2022/01/23 13:01:21;;;;;;;21.92;15.48;;;6.90;99.90;;;;;;5045021;28;20049;-78
2022/01/23 13:03:59;;;;;;;26.95;18.30;;;6.90;99.90;;;;;;5042647;28;20045;-77
2022/01/23 13:06:34;;;;;;;36.78;23.58;;;6.90;99.90;;;;;;5044861;28;20841;-77
2022/01/23 13:09:38;;;;;;;26.13;18.88;;;7.00;99.90;;;;;;5033607;28;20046;-78
2022/01/23 13:12:13;;;;;;;21.58;15.55;;;6.90;99.90;;;;;;5025622;28;20516;-78
2022/01/23 13:15:12;;;;;;;23.77;16.48;;;6.90;99.90;;;;;;5054364;28;20049;-77
2022/01/23 13:32:01;;;;;;;;;;;7.00;99.90;;;;;;5047372;28;20804;-76
2022/01/23 13:34:31;;;;;;;22.42;14.27;;;7.00;99.90;;;;;;5000457;28;19921;-76
2022/01/23 13:37:08;;;;;;;22.08;15.45;;;7.00;99.90;;;;;;5047186;28;20052;-76
2022/01/23 13:39:44;;;;;;;23.70;15.60;;;7.00;99.90;;;;;;5044745;28;20375;-77
2022/01/23 13:59:31;;;;;;;31.70;19.55;;;6.90;99.90;;;;;;5039792;28;20037;-76
2022/01/23 14:05:20;;;;;;;26.13;17.38;;;6.90;99.90;;;;;;5044889;28;20056;-76
2022/01/23 14:07:50;;;;;;;29.45;19.63;;;6.90;99.90;;;;;;5028528;28;20486;-77
2022/01/23 14:10:24;;;;;;;23.27;16.52;;;6.90;99.90;;;;;;5043694;28;20500;-77
2022/01/23 14:13:03;;;;;;;23.65;16.85;;;6.90;99.90;;;;;;5039599;28;20041;-77
2022/01/23 14:15:31;;;;;;;30.13;18.45;;;6.90;99.90;;;;;;5043722;28;20048;-77
2022/01/23 14:18:10;;;;;;;25.45;17.17;;;6.80;99.90;;;;;;5046216;28;20734;-77
2022/01/23 14:20:41;;;;;;;;;;;6.80;99.90;;;;;;5044026;28;20115;-76
2022/01/23 14:23:14;;;;;;;26.05;18.00;;;6.80;99.90;;;;;;5041745;28;19929;-77
2022/01/23 14:25:49;;;;;;;30.48;19.48;;;6.80;99.90;;;;;;5027115;28;20050;-76
2022/01/23 14:28:23;;;;;;;27.88;19.10;;;6.80;99.90;;;;;;5046693;28;20049;-76
2022/01/23 14:30:58;;;;;;;27.08;17.88;;;6.80;99.90;;;;;;5043586;28;20449;-76
2022/01/23 14:33:32;;;;;;;28.13;18.38;;;6.80;99.90;;;;;;5041926;28;20053;-76
2022/01/23 14:36:21;;;;;;;28.75;19.33;;;6.80;99.90;;;;;;5046648;28;20049;-76
2022/01/23 14:38:59;;;;;;;33.72;21.75;;;6.70;99.90;;;;;;5031227;28;20412;-76
2022/01/23 14:41:32;;;;;;;38.67;23.30;;;6.70;99.90;;;;;;5045742;28;20067;-77
2022/01/23 14:44:02;;;;;;;31.85;19.85;;;6.70;99.90;;;;;;5026783;28;20298;-75
2022/01/23 14:46:29;;;;;;;30.33;17.85;;;6.70;99.90;;;;;;5050107;28;20045;-75
2022/01/23 14:49:09;;;;;;;26.85;17.90;;;6.70;99.90;;;;;;5040307;28;20497;-76
2022/01/23 14:51:40;;;;;;;42.63;25.38;;;6.70;99.90;;;;;;5035450;28;20045;-78
2022/01/23 14:54:09;;;;;;;81.13;40.63;;;6.70;99.90;;;;;;5030628;28;20049;-77
2022/01/23 14:56:39;;;;;;;29.63;19.30;;;6.70;99.90;;;;;;5044620;28;20048;-76
2022/01/23 14:59:11;;;;;;;28.25;19.35;;;6.70;99.90;;;;;;5047096;28;20056;-76
2022/01/23 15:01:41;;;;;;;29.60;19.98;;;6.60;99.90;;;;;;5049074;28;20051;-76
2022/01/23 15:04:11;;;;;;;28.50;19.73;;;6.60;99.90;;;;;;5048723;28;20052;-76
2022/01/23 15:06:46;;;;;;;28.23;18.55;;;6.60;99.90;;;;;;5046959;28;20053;-76
2022/01/23 15:09:16;;;;;;;30.45;20.15;;;6.60;99.90;;;;;;5048128;28;20500;-77
2022/01/23 15:11:44;;;;;;;26.20;17.50;;;6.60;99.90;;;;;;5026887;28;20061;-76
2022/01/23 15:14:12;;;;;;;27.48;17.58;;;6.60;99.90;;;;;;5049282;28;20045;-76
2022/01/23 15:16:41;;;;;;;29.42;19.70;;;6.60;99.90;;;;;;5047594;28;20493;-77
2022/01/23 15:19:10;;;;;;;29.10;19.50;;;6.60;99.90;;;;;;5047926;28;20037;-77
2022/01/23 15:21:39;;;;;;;29.45;18.90;;;6.60;99.90;;;;;;5045784;28;20072;-76
2022/01/23 15:24:07;;;;;;;27.30;17.85;;;6.60;99.90;;;;;;5046186;28;20260;-77
2022/01/23 15:26:37;;;;;;;30.55;18.40;;;6.50;99.90;;;;;;5045692;28;20131;-77
2022/01/23 15:29:05;;;;;;;27.20;16.08;;;6.50;99.90;;;;;;5047835;28;20059;-76
2022/01/23 15:31:35;;;;;;;25.73;15.93;;;6.50;99.90;;;;;;5047789;28;20040;-77
2022/01/23 15:34:04;;;;;;;24.25;16.88;;;6.50;99.90;;;;;;5046939;28;20053;-77
2022/01/23 15:36:31;;;;;;;24.10;16.27;;;6.50;99.90;;;;;;5048815;28;20165;-77
2022/01/23 15:39:01;;;;;;;25.00;16.50;;;6.50;99.90;;;;;;5030699;28;20398;-77
2022/01/23 15:41:29;;;;;;;27.02;15.55;;;6.50;99.90;;;;;;5037378;28;20668;-80
2022/01/23 15:43:57;;;;;;;25.27;15.65;;;6.50;99.90;;;;;;5051962;28;20056;-82
2022/01/23 15:46:25;;;;;;;27.48;17.10;;;6.40;99.90;;;;;;5048780;28;20057;-78
2022/01/23 15:48:52;;;;;;;25.17;16.52;;;6.40;99.90;;;;;;5048327;28;20477;-79
2022/01/23 15:51:20;;;;;;;24.23;16.45;;;6.40;99.90;;;;;;5049940;28;20174;-81
2022/01/23 15:53:48;;;;;;;27.40;17.17;;;6.40;99.90;;;;;;5049112;28;20592;-80
2022/01/23 15:56:16;;;;;;;28.20;17.58;;;6.50;99.90;;;;;;5047112;28;20686;-80
2022/01/23 15:58:44;;;;;;;28.95;17.55;;;6.30;99.90;;;;;;5049386;28;20045;-79
2022/01/23 16:01:13;;;;;;;25.88;17.67;;;6.30;99.90;;;;;;5045152;28;20076;-79
2022/01/23 16:03:42;;;;;;;26.45;16.50;;;6.30;99.90;;;;;;5050509;28;20048;-80
2022/01/23 16:06:09;;;;;;;;;;;6.30;99.90;;;;;;5038132;28;20053;-79
2022/01/23 16:08:38;;;;;;;27.38;18.08;;;6.20;99.90;;;;;;5045826;28;19947;-76
2022/01/23 16:11:07;;;;;;;28.05;17.27;;;6.20;99.90;;;;;;5045887;28;20057;-77
2022/01/23 16:13:35;;;;;;;25.67;17.40;;;6.20;99.90;;;;;;5065172;28;20533;-80
2022/01/23 16:16:03;;;;;;;32.33;18.13;;;6.30;99.90;;;;;;5051691;28;20048;-84
2022/01/23 16:18:33;;;;;;;28.08;17.73;;;6.20;99.90;;;;;;5051222;28;20044;-78
2022/01/23 16:21:01;;;;;;;25.80;18.20;;;6.10;99.90;;;;;;5047736;28;20056;-78
2022/01/23 16:23:29;;;;;;;;;;;6.10;99.90;;;;;;5049719;28;20048;-80
2022/01/23 16:26:11;;;;;;;28.75;17.55;;;6.10;99.90;;;;;;5050439;28;20388;-79
2022/01/23 16:28:40;;;;;;;25.55;17.33;;;6.10;99.90;;;;;;5047706;28;20045;-79
2022/01/23 16:31:09;;;;;;;25.75;16.98;;;6.10;99.90;;;;;;5049513;28;20519;-77
2022/01/23 16:33:38;;;;;;;28.55;18.10;;;6.10;99.90;;;;;;5029366;28;20128;-79
2022/01/23 16:36:07;;;;;;;27.83;18.92;;;6.10;99.90;;;;;;5029058;28;20056;-78